sensor_id;sensor_type;location;lat;lon;timestamp;temperature;humidity
18153;DHT22;9202;51.578;7.734;2023-02-22T00:00:12;7.80;99.90
18153;DHT22;9202;51.578;7.734;2023-02-22T00:02:20;7.80;99.90
18153;DHT22;9202;51.578;7.734;2023-02-22T00:04:27;7.80;99.90
18153;DHT22;9202;51.578;7.734;2023-02-22T00:06:30;7.80;99.90
18153;DHT22;9202;51.578;7.734;2023-02-22T00:08:33;7.70;99.90
18153;DHT22;9202;51.578;7.734;2023-02-22T00:10:36;7.70;99.90
18153;DHT22;9202;51.578;7.734;2023-02-22T00:12:40;7.70;99.90
18153;DHT22;9202;51.578;7.734;2023-02-22T00:14:43;7.70;99.90
18153;DHT22;9202;51.578;7.734;2023-02-22T00:16:46;7.70;99.90
18153;DHT22;9202;51.578;7.734;2023-02-22T00:18:48;7.70;99.90
18153;DHT22;9202;51.578;7.734;2023-02-22T00:20:51;7.70;99.90
18153;DHT22;9202;51.578;7.734;2023-02-22T00:22:55;7.60;99.90
18153;DHT22;9202;51.578;7.734;2023-02-22T00:24:58;7.60;99.90
18153;DHT22;9202;51.578;7.734;2023-02-22T00:27:00;7.60;99.90
18153;DHT22;9202;51.578;7.734;2023-02-22T00:29:04;7.50;99.90
18153;DHT22;9202;51.578;7.734;2023-02-22T00:31:09;7.60;99.90
18153;DHT22;9202;51.578;7.734;2023-02-22T00:33:12;7.50;99.90
18153;DHT22;9202;51.578;7.734;2023-02-22T00:35:16;7.50;99.90
18153;DHT22;9202;51.578;7.734;2023-02-22T00:37:20;7.40;99.90
18153;DHT22;9202;51.578;7.734;2023-02-22T00:39:23;7.40;99.90
18153;DHT22;9202;51.578;7.734;2023-02-22T00:41:27;7.30;99.90
18153;DHT22;9202;51.578;7.734;2023-02-22T00:43:30;7.30;99.90
18153;DHT22;9202;51.578;7.734;2023-02-22T00:45:33;7.30;99.90
18153;DHT22;9202;51.578;7.734;2023-02-22T00:47:36;7.20;99.90
18153;DHT22;9202;51.578;7.734;2023-02-22T00:49:39;7.20;99.90
18153;DHT22;9202;51.578;7.734;2023-02-22T00:51:43;7.20;99.90
18153;DHT22;9202;51.578;7.734;2023-02-22T00:53:46;7.20;99.90
18153;DHT22;9202;51.578;7.734;2023-02-22T00:55:49;7.20;99.90
18153;DHT22;9202;51.578;7.734;2023-02-22T00:57:51;7.20;99.90
18153;DHT22;9202;51.578;7.734;2023-02-22T00:59:54;7.20;99.90
18153;DHT22;9202;51.578;7.734;2023-02-22T01:01:58;7.10;99.90
18153;DHT22;9202;51.578;7.734;2023-02-22T01:04:01;7.10;99.90
18153;DHT22;9202;51.578;7.734;2023-02-22T01:06:04;7.10;99.90
18153;DHT22;9202;51.578;7.734;2023-02-22T01:08:07;7.00;99.90
18153;DHT22;9202;51.578;7.734;2023-02-22T01:10:11;7.10;99.90
18153;DHT22;9202;51.578;7.734;2023-02-22T01:12:14;7.00;99.90
18153;DHT22;9202;51.578;7.734;2023-02-22T01:14:16;7.00;99.90
18153;DHT22;9202;51.578;7.734;2023-02-22T01:16:21;7.10;99.90
18153;DHT22;9202;51.578;7.734;2023-02-22T01:18:24;7.00;99.90
18153;DHT22;9202;51.578;7.734;2023-02-22T01:20:27;7.00;99.90
18153;DHT22;9202;51.578;7.734;2023-02-22T01:22:30;7.00;99.90
18153;DHT22;9202;51.578;7.734;2023-02-22T01:24:33;7.00;99.90
18153;DHT22;9202;51.578;7.734;2023-02-22T01:26:35;7.00;99.90
18153;DHT22;9202;51.578;7.734;2023-02-22T01:28:38;7.00;99.90
18153;DHT22;9202;51.578;7.734;2023-02-22T01:30:41;7.00;99.90
18153;DHT22;9202;51.578;7.734;2023-02-22T01:32:44;6.90;99.90
18153;DHT22;9202;51.578;7.734;2023-02-22T01:34:47;6.90;99.90
18153;DHT22;9202;51.578;7.734;2023-02-22T01:36:49;6.90;99.90
18153;DHT22;9202;51.578;7.734;2023-02-22T01:38:51;6.90;99.90
18153;DHT22;9202;51.578;7.734;2023-02-22T01:40:55;6.80;99.90
18153;DHT22;9202;51.578;7.734;2023-02-22T01:42:58;6.70;99.90
18153;DHT22;9202;51.578;7.734;2023-02-22T01:49:57;6.70;99.90
18153;DHT22;9202;51.578;7.734;2023-02-22T01:52:00;6.70;99.90
18153;DHT22;9202;51.578;7.734;2023-02-22T01:54:05;6.60;99.90
18153;DHT22;9202;51.578;7.734;2023-02-22T01:56:09;6.50;99.90
18153;DHT22;9202;51.578;7.734;2023-02-22T01:58:15;6.50;99.90
18153;DHT22;9202;51.578;7.734;2023-02-22T02:00:18;6.40;99.90
18153;DHT22;9202;51.578;7.734;2023-02-22T02:02:22;6.50;99.90
18153;DHT22;9202;51.578;7.734;2023-02-22T02:04:27;6.30;99.90
18153;DHT22;9202;51.578;7.734;2023-02-22T02:06:30;6.30;99.90
18153;DHT22;9202;51.578;7.734;2023-02-22T02:08:35;6.30;99.90
18153;DHT22;9202;51.578;7.734;2023-02-22T02:10:38;6.30;99.90
18153;DHT22;9202;51.578;7.734;2023-02-22T02:12:43;6.30;99.90
18153;DHT22;9202;51.578;7.734;2023-02-22T02:14:46;6.30;99.90
18153;DHT22;9202;51.578;7.734;2023-02-22T02:16:49;6.10;99.90
18153;DHT22;9202;51.578;7.734;2023-02-22T02:18:54;6.10;99.90
18153;DHT22;9202;51.578;7.734;2023-02-22T02:21:09;6.00;99.90
18153;DHT22;9202;51.578;7.734;2023-02-22T02:23:07;6.10;99.90
18153;DHT22;9202;51.578;7.734;2023-02-22T02:25:23;6.00;99.90
18153;DHT22;9202;51.578;7.734;2023-02-22T02:27:25;6.00;99.90
18153;DHT22;9202;51.578;7.734;2023-02-22T02:34:20;5.90;99.90
18153;DHT22;9202;51.578;7.734;2023-02-22T02:36:27;5.90;99.90
18153;DHT22;9202;51.578;7.734;2023-02-22T02:38:30;6.00;99.90
18153;DHT22;9202;51.578;7.734;2023-02-22T02:40:35;6.00;99.90
18153;DHT22;9202;51.578;7.734;2023-02-22T02:42:40;6.00;99.90
18153;DHT22;9202;51.578;7.734;2023-02-22T02:44:45;6.10;99.90
18153;DHT22;9202;51.578;7.734;2023-02-22T02:46:49;6.10;99.90
18153;DHT22;9202;51.578;7.734;2023-02-22T02:48:55;6.10;99.90
18153;DHT22;9202;51.578;7.734;2023-02-22T02:50:59;5.90;99.90
18153;DHT22;9202;51.578;7.734;2023-02-22T02:53:03;5.90;99.90
18153;DHT22;9202;51.578;7.734;2023-02-22T02:55:07;5.90;99.90
18153;DHT22;9202;51.578;7.734;2023-02-22T02:57:12;6.00;99.90
18153;DHT22;9202;51.578;7.734;2023-02-22T02:59:26;6.00;99.90
18153;DHT22;9202;51.578;7.734;2023-02-22T03:01:40;5.80;99.90
18153;DHT22;9202;51.578;7.734;2023-02-22T03:03:48;5.80;99.90
18153;DHT22;9202;51.578;7.734;2023-02-22T03:06:00;5.90;99.90
18153;DHT22;9202;51.578;7.734;2023-02-22T03:08:04;5.80;99.90
18153;DHT22;9202;51.578;7.734;2023-02-22T03:10:15;5.80;99.90
18153;DHT22;9202;51.578;7.734;2023-02-22T03:12:20;5.80;99.90
18153;DHT22;9202;51.578;7.734;2023-02-22T03:14:24;5.80;99.90
18153;DHT22;9202;51.578;7.734;2023-02-22T03:16:30;5.80;99.90
18153;DHT22;9202;51.578;7.734;2023-02-22T03:18:35;5.90;99.90
18153;DHT22;9202;51.578;7.734;2023-02-22T03:20:41;5.80;99.90
18153;DHT22;9202;51.578;7.734;2023-02-22T03:22:49;5.60;99.90
18153;DHT22;9202;51.578;7.734;2023-02-22T03:24:53;5.60;99.90
18153;DHT22;9202;51.578;7.734;2023-02-22T03:26:57;5.60;99.90
18153;DHT22;9202;51.578;7.734;2023-02-22T03:29:04;5.50;99.90
18153;DHT22;9202;51.578;7.734;2023-02-22T03:31:09;5.50;99.90
18153;DHT22;9202;51.578;7.734;2023-02-22T03:33:13;5.50;99.90
18153;DHT22;9202;51.578;7.734;2023-02-22T03:35:18;5.60;99.90
18153;DHT22;9202;51.578;7.734;2023-02-22T03:37:23;5.60;99.90
18153;DHT22;9202;51.578;7.734;2023-02-22T03:39:27;5.50;99.90
18153;DHT22;9202;51.578;7.734;2023-02-22T03:41:32;5.40;99.90
18153;DHT22;9202;51.578;7.734;2023-02-22T03:43:37;5.40;99.90
18153;DHT22;9202;51.578;7.734;2023-02-22T03:45:44;5.40;99.90
18153;DHT22;9202;51.578;7.734;2023-02-22T03:47:50;5.50;99.90
18153;DHT22;9202;51.578;7.734;2023-02-22T03:49:55;5.60;99.90
18153;DHT22;9202;51.578;7.734;2023-02-22T03:52:00;5.70;99.90
18153;DHT22;9202;51.578;7.734;2023-02-22T03:54:03;5.50;99.90
18153;DHT22;9202;51.578;7.734;2023-02-22T03:56:09;5.40;99.90
18153;DHT22;9202;51.578;7.734;2023-02-22T03:58:13;5.40;99.90
18153;DHT22;9202;51.578;7.734;2023-02-22T04:00:18;5.40;99.90
18153;DHT22;9202;51.578;7.734;2023-02-22T04:02:20;5.40;99.90
18153;DHT22;9202;51.578;7.734;2023-02-22T04:04:25;5.30;99.90
18153;DHT22;9202;51.578;7.734;2023-02-22T04:06:28;5.20;99.90
18153;DHT22;9202;51.578;7.734;2023-02-22T04:08:31;5.20;99.90
18153;DHT22;9202;51.578;7.734;2023-02-22T04:10:34;5.20;99.90
18153;DHT22;9202;51.578;7.734;2023-02-22T04:12:38;5.20;99.90
18153;DHT22;9202;51.578;7.734;2023-02-22T04:14:42;5.30;99.90
18153;DHT22;9202;51.578;7.734;2023-02-22T04:16:45;5.20;99.90
18153;DHT22;9202;51.578;7.734;2023-02-22T04:18:49;5.20;99.90
18153;DHT22;9202;51.578;7.734;2023-02-22T04:20:53;5.20;99.90
18153;DHT22;9202;51.578;7.734;2023-02-22T04:22:57;5.10;99.90
18153;DHT22;9202;51.578;7.734;2023-02-22T04:25:00;5.00;99.90
18153;DHT22;9202;51.578;7.734;2023-02-22T04:27:03;5.00;99.90
18153;DHT22;9202;51.578;7.734;2023-02-22T04:29:07;4.90;99.90
18153;DHT22;9202;51.578;7.734;2023-02-22T04:31:12;4.80;99.90
18153;DHT22;9202;51.578;7.734;2023-02-22T04:33:15;4.80;99.90
18153;DHT22;9202;51.578;7.734;2023-02-22T04:35:18;4.60;99.90
18153;DHT22;9202;51.578;7.734;2023-02-22T04:37:21;4.70;99.90
18153;DHT22;9202;51.578;7.734;2023-02-22T04:39:23;4.60;99.90
18153;DHT22;9202;51.578;7.734;2023-02-22T04:41:26;4.70;99.90
18153;DHT22;9202;51.578;7.734;2023-02-22T04:43:29;4.60;99.90
18153;DHT22;9202;51.578;7.734;2023-02-22T04:45:33;4.50;99.90
18153;DHT22;9202;51.578;7.734;2023-02-22T04:47:38;4.60;99.90
18153;DHT22;9202;51.578;7.734;2023-02-22T04:49:41;4.60;99.90
18153;DHT22;9202;51.578;7.734;2023-02-22T04:51:43;4.50;99.90
18153;DHT22;9202;51.578;7.734;2023-02-22T04:53:47;4.50;99.90
18153;DHT22;9202;51.578;7.734;2023-02-22T04:55:50;4.40;99.90
18153;DHT22;9202;51.578;7.734;2023-02-22T04:57:53;4.50;99.90
18153;DHT22;9202;51.578;7.734;2023-02-22T04:59:56;4.40;99.90
18153;DHT22;9202;51.578;7.734;2023-02-22T05:01:59;4.40;99.90
18153;DHT22;9202;51.578;7.734;2023-02-22T05:04:02;4.50;99.90
18153;DHT22;9202;51.578;7.734;2023-02-22T05:06:05;4.50;99.90
18153;DHT22;9202;51.578;7.734;2023-02-22T05:08:08;4.50;99.90
18153;DHT22;9202;51.578;7.734;2023-02-22T05:10:10;4.30;99.90
18153;DHT22;9202;51.578;7.734;2023-02-22T05:12:13;4.30;99.90
18153;DHT22;9202;51.578;7.734;2023-02-22T05:14:16;4.20;99.90
18153;DHT22;9202;51.578;7.734;2023-02-22T05:16:19;4.40;99.90
18153;DHT22;9202;51.578;7.734;2023-02-22T05:18:22;4.20;99.90
18153;DHT22;9202;51.578;7.734;2023-02-22T05:20:25;4.20;99.90
18153;DHT22;9202;51.578;7.734;2023-02-22T05:22:29;4.20;99.90
18153;DHT22;9202;51.578;7.734;2023-02-22T05:24:31;4.10;99.90
18153;DHT22;9202;51.578;7.734;2023-02-22T05:26:35;4.10;99.90
18153;DHT22;9202;51.578;7.734;2023-02-22T05:28:38;4.20;99.90
18153;DHT22;9202;51.578;7.734;2023-02-22T05:30:41;4.20;99.90
18153;DHT22;9202;51.578;7.734;2023-02-22T05:32:44;4.20;99.90
18153;DHT22;9202;51.578;7.734;2023-02-22T05:34:48;4.00;99.90
18153;DHT22;9202;51.578;7.734;2023-02-22T05:36:51;4.00;99.90
18153;DHT22;9202;51.578;7.734;2023-02-22T05:38:53;4.00;99.90
18153;DHT22;9202;51.578;7.734;2023-02-22T05:40:56;4.00;99.90
18153;DHT22;9202;51.578;7.734;2023-02-22T05:42:58;4.10;99.90
18153;DHT22;9202;51.578;7.734;2023-02-22T05:45:03;4.20;99.90
18153;DHT22;9202;51.578;7.734;2023-02-22T05:47:06;4.10;99.90
18153;DHT22;9202;51.578;7.734;2023-02-22T05:49:08;4.10;99.90
18153;DHT22;9202;51.578;7.734;2023-02-22T05:51:11;4.10;99.90
18153;DHT22;9202;51.578;7.734;2023-02-22T05:53:13;4.10;99.90
18153;DHT22;9202;51.578;7.734;2023-02-22T05:55:17;4.10;99.90
18153;DHT22;9202;51.578;7.734;2023-02-22T05:57:20;4.10;99.90
18153;DHT22;9202;51.578;7.734;2023-02-22T05:59:22;4.00;99.90
18153;DHT22;9202;51.578;7.734;2023-02-22T06:01:25;4.00;99.90
18153;DHT22;9202;51.578;7.734;2023-02-22T06:03:28;3.90;99.90
18153;DHT22;9202;51.578;7.734;2023-02-22T06:05:30;3.90;99.90
18153;DHT22;9202;51.578;7.734;2023-02-22T06:07:33;3.80;99.90
18153;DHT22;9202;51.578;7.734;2023-02-22T06:09:35;3.80;99.90
18153;DHT22;9202;51.578;7.734;2023-02-22T06:11:38;3.80;99.90
18153;DHT22;9202;51.578;7.734;2023-02-22T06:13:40;3.80;99.90
18153;DHT22;9202;51.578;7.734;2023-02-22T06:15:43;3.90;99.90
18153;DHT22;9202;51.578;7.734;2023-02-22T06:17:46;3.80;99.90
18153;DHT22;9202;51.578;7.734;2023-02-22T06:19:48;3.80;99.90
18153;DHT22;9202;51.578;7.734;2023-02-22T06:21:51;3.80;99.90
18153;DHT22;9202;51.578;7.734;2023-02-22T06:23:54;3.70;99.90
18153;DHT22;9202;51.578;7.734;2023-02-22T06:25:56;3.60;99.90
18153;DHT22;9202;51.578;7.734;2023-02-22T06:27:59;3.70;99.90
18153;DHT22;9202;51.578;7.734;2023-02-22T06:30:02;3.60;99.90
18153;DHT22;9202;51.578;7.734;2023-02-22T06:32:05;3.60;99.90
18153;DHT22;9202;51.578;7.734;2023-02-22T06:34:07;3.60;99.90
18153;DHT22;9202;51.578;7.734;2023-02-22T06:36:10;3.50;99.90
18153;DHT22;9202;51.578;7.734;2023-02-22T06:38:13;3.60;99.90
18153;DHT22;9202;51.578;7.734;2023-02-22T06:40:19;3.60;99.90
18153;DHT22;9202;51.578;7.734;2023-02-22T06:42:21;3.60;99.90
18153;DHT22;9202;51.578;7.734;2023-02-22T06:44:25;3.60;99.90
18153;DHT22;9202;51.578;7.734;2023-02-22T06:46:27;3.60;99.90
18153;DHT22;9202;51.578;7.734;2023-02-22T06:48:30;3.50;99.90
18153;DHT22;9202;51.578;7.734;2023-02-22T06:50:32;3.60;99.90
18153;DHT22;9202;51.578;7.734;2023-02-22T06:52:41;3.70;99.90
18153;DHT22;9202;51.578;7.734;2023-02-22T06:54:43;3.60;99.90
18153;DHT22;9202;51.578;7.734;2023-02-22T06:56:46;3.70;99.90
18153;DHT22;9202;51.578;7.734;2023-02-22T06:58:49;3.70;99.90
18153;DHT22;9202;51.578;7.734;2023-02-22T07:00:51;3.80;99.90
18153;DHT22;9202;51.578;7.734;2023-02-22T07:02:54;3.80;99.90
18153;DHT22;9202;51.578;7.734;2023-02-22T07:04:57;3.70;99.90
18153;DHT22;9202;51.578;7.734;2023-02-22T07:06:59;3.70;99.90
18153;DHT22;9202;51.578;7.734;2023-02-22T07:09:02;3.80;99.90
18153;DHT22;9202;51.578;7.734;2023-02-22T07:11:05;3.90;99.90
18153;DHT22;9202;51.578;7.734;2023-02-22T07:13:07;3.70;99.90
18153;DHT22;9202;51.578;7.734;2023-02-22T07:15:10;3.60;99.90
18153;DHT22;9202;51.578;7.734;2023-02-22T07:17:12;3.70;99.90
18153;DHT22;9202;51.578;7.734;2023-02-22T07:19:15;3.80;99.90
18153;DHT22;9202;51.578;7.734;2023-02-22T07:21:17;3.70;99.90
18153;DHT22;9202;51.578;7.734;2023-02-22T07:23:20;3.50;99.90
18153;DHT22;9202;51.578;7.734;2023-02-22T07:25:25;3.60;99.90
18153;DHT22;9202;51.578;7.734;2023-02-22T07:27:27;3.50;99.90
18153;DHT22;9202;51.578;7.734;2023-02-22T07:29:29;3.50;99.90
18153;DHT22;9202;51.578;7.734;2023-02-22T07:31:34;3.50;99.90
18153;DHT22;9202;51.578;7.734;2023-02-22T07:33:37;3.50;99.90
18153;DHT22;9202;51.578;7.734;2023-02-22T07:35:43;3.40;99.90
18153;DHT22;9202;51.578;7.734;2023-02-22T07:37:43;3.40;99.90
18153;DHT22;9202;51.578;7.734;2023-02-22T07:39:46;3.40;99.90
18153;DHT22;9202;51.578;7.734;2023-02-22T07:41:48;3.50;99.90
18153;DHT22;9202;51.578;7.734;2023-02-22T07:43:53;3.60;99.90
18153;DHT22;9202;51.578;7.734;2023-02-22T07:45:57;3.70;99.90
18153;DHT22;9202;51.578;7.734;2023-02-22T07:48:00;3.70;99.90
18153;DHT22;9202;51.578;7.734;2023-02-22T07:50:04;3.70;99.90
18153;DHT22;9202;51.578;7.734;2023-02-22T07:52:07;3.80;99.90
18153;DHT22;9202;51.578;7.734;2023-02-22T07:54:09;3.80;99.90
18153;DHT22;9202;51.578;7.734;2023-02-22T07:56:12;3.80;99.90
18153;DHT22;9202;51.578;7.734;2023-02-22T07:58:14;3.90;99.90
18153;DHT22;9202;51.578;7.734;2023-02-22T08:00:21;3.90;99.90
18153;DHT22;9202;51.578;7.734;2023-02-22T08:02:24;3.90;99.90
18153;DHT22;9202;51.578;7.734;2023-02-22T08:04:27;4.10;99.90
18153;DHT22;9202;51.578;7.734;2023-02-22T08:06:29;4.10;99.90
18153;DHT22;9202;51.578;7.734;2023-02-22T08:08:32;4.20;99.90
18153;DHT22;9202;51.578;7.734;2023-02-22T08:10:35;4.20;99.90
18153;DHT22;9202;51.578;7.734;2023-02-22T08:12:38;4.30;99.90
18153;DHT22;9202;51.578;7.734;2023-02-22T08:14:40;4.40;99.90
18153;DHT22;9202;51.578;7.734;2023-02-22T08:16:44;4.50;99.90
18153;DHT22;9202;51.578;7.734;2023-02-22T08:18:47;4.60;99.90
18153;DHT22;9202;51.578;7.734;2023-02-22T08:20:50;4.70;99.90
18153;DHT22;9202;51.578;7.734;2023-02-22T08:22:53;4.70;99.90
18153;DHT22;9202;51.578;7.734;2023-02-22T08:24:56;4.90;99.90
18153;DHT22;9202;51.578;7.734;2023-02-22T08:26:58;5.00;99.90
18153;DHT22;9202;51.578;7.734;2023-02-22T08:29:01;5.30;99.90
18153;DHT22;9202;51.578;7.734;2023-02-22T08:31:04;5.40;99.90
18153;DHT22;9202;51.578;7.734;2023-02-22T08:33:08;5.40;99.90
18153;DHT22;9202;51.578;7.734;2023-02-22T08:35:12;5.60;99.90
18153;DHT22;9202;51.578;7.734;2023-02-22T08:37:15;5.80;99.90
18153;DHT22;9202;51.578;7.734;2023-02-22T08:39:18;5.90;99.90
18153;DHT22;9202;51.578;7.734;2023-02-22T08:41:21;6.00;99.90
18153;DHT22;9202;51.578;7.734;2023-02-22T08:43:23;6.10;99.90
18153;DHT22;9202;51.578;7.734;2023-02-22T08:45:26;6.20;99.90
18153;DHT22;9202;51.578;7.734;2023-02-22T08:47:29;6.20;99.90
18153;DHT22;9202;51.578;7.734;2023-02-22T08:49:31;6.30;99.90
18153;DHT22;9202;51.578;7.734;2023-02-22T08:51:34;6.40;99.90
18153;DHT22;9202;51.578;7.734;2023-02-22T08:53:37;6.50;99.90
18153;DHT22;9202;51.578;7.734;2023-02-22T08:55:39;6.50;99.90
18153;DHT22;9202;51.578;7.734;2023-02-22T08:57:43;6.60;99.90
18153;DHT22;9202;51.578;7.734;2023-02-22T08:59:46;6.60;99.90
18153;DHT22;9202;51.578;7.734;2023-02-22T09:01:48;6.60;99.90
18153;DHT22;9202;51.578;7.734;2023-02-22T09:03:51;6.70;99.90
18153;DHT22;9202;51.578;7.734;2023-02-22T09:05:54;6.90;99.90
18153;DHT22;9202;51.578;7.734;2023-02-22T09:07:57;7.00;99.90
18153;DHT22;9202;51.578;7.734;2023-02-22T09:09:59;7.00;99.90
18153;DHT22;9202;51.578;7.734;2023-02-22T09:12:02;7.10;99.90
18153;DHT22;9202;51.578;7.734;2023-02-22T09:14:05;7.20;99.90
18153;DHT22;9202;51.578;7.734;2023-02-22T09:16:07;7.40;99.90
18153;DHT22;9202;51.578;7.734;2023-02-22T09:18:11;7.50;99.90
18153;DHT22;9202;51.578;7.734;2023-02-22T09:20:15;7.70;99.90
18153;DHT22;9202;51.578;7.734;2023-02-22T09:22:20;7.80;99.90
18153;DHT22;9202;51.578;7.734;2023-02-22T09:24:22;8.00;99.90
18153;DHT22;9202;51.578;7.734;2023-02-22T09:26:26;8.00;99.90
18153;DHT22;9202;51.578;7.734;2023-02-22T09:28:29;8.20;99.90
18153;DHT22;9202;51.578;7.734;2023-02-22T09:30:32;8.40;99.90
18153;DHT22;9202;51.578;7.734;2023-02-22T09:32:35;8.50;99.90
18153;DHT22;9202;51.578;7.734;2023-02-22T09:34:38;8.60;99.90
18153;DHT22;9202;51.578;7.734;2023-02-22T09:36:43;8.60;99.90
18153;DHT22;9202;51.578;7.734;2023-02-22T09:38:47;8.70;99.90
18153;DHT22;9202;51.578;7.734;2023-02-22T09:40:51;8.90;99.90
18153;DHT22;9202;51.578;7.734;2023-02-22T09:43:07;9.00;99.90
18153;DHT22;9202;51.578;7.734;2023-02-22T09:45:13;9.10;99.90
18153;DHT22;9202;51.578;7.734;2023-02-22T09:47:17;9.20;99.90
18153;DHT22;9202;51.578;7.734;2023-02-22T09:49:21;9.30;99.90
18153;DHT22;9202;51.578;7.734;2023-02-22T09:51:27;9.40;99.90
18153;DHT22;9202;51.578;7.734;2023-02-22T09:53:32;9.60;99.90
18153;DHT22;9202;51.578;7.734;2023-02-22T09:55:36;9.80;99.90
18153;DHT22;9202;51.578;7.734;2023-02-22T09:57:42;10.00;99.90
18153;DHT22;9202;51.578;7.734;2023-02-22T09:59:47;10.10;99.90
18153;DHT22;9202;51.578;7.734;2023-02-22T10:01:53;10.20;99.90
18153;DHT22;9202;51.578;7.734;2023-02-22T10:04:00;10.40;99.90
18153;DHT22;9202;51.578;7.734;2023-02-22T10:06:03;10.50;99.90
18153;DHT22;9202;51.578;7.734;2023-02-22T10:08:10;10.70;99.90
18153;DHT22;9202;51.578;7.734;2023-02-22T10:10:14;10.80;99.90
18153;DHT22;9202;51.578;7.734;2023-02-22T10:12:24;10.90;99.90
18153;DHT22;9202;51.578;7.734;2023-02-22T10:16:53;11.10;99.90
18153;DHT22;9202;51.578;7.734;2023-02-22T10:19:00;11.30;99.90
18153;DHT22;9202;51.578;7.734;2023-02-22T10:21:06;11.60;99.90
18153;DHT22;9202;51.578;7.734;2023-02-22T10:23:12;11.80;99.90
18153;DHT22;9202;51.578;7.734;2023-02-22T10:25:16;12.00;99.90
18153;DHT22;9202;51.578;7.734;2023-02-22T10:27:21;12.20;99.90
18153;DHT22;9202;51.578;7.734;2023-02-22T10:29:26;12.40;99.90
18153;DHT22;9202;51.578;7.734;2023-02-22T10:31:30;12.50;99.90
18153;DHT22;9202;51.578;7.734;2023-02-22T10:33:35;12.70;99.90
18153;DHT22;9202;51.578;7.734;2023-02-22T10:35:39;12.70;99.90
18153;DHT22;9202;51.578;7.734;2023-02-22T10:37:42;12.80;99.90
18153;DHT22;9202;51.578;7.734;2023-02-22T10:39:46;12.90;99.90
18153;DHT22;9202;51.578;7.734;2023-02-22T10:41:51;13.10;99.90
18153;DHT22;9202;51.578;7.734;2023-02-22T10:43:54;13.30;99.90
18153;DHT22;9202;51.578;7.734;2023-02-22T10:45:59;13.30;99.90
18153;DHT22;9202;51.578;7.734;2023-02-22T10:48:04;13.30;99.90
18153;DHT22;9202;51.578;7.734;2023-02-22T10:50:11;13.50;99.90
18153;DHT22;9202;51.578;7.734;2023-02-22T10:52:18;13.60;99.90
18153;DHT22;9202;51.578;7.734;2023-02-22T10:54:23;13.60;99.90
18153;DHT22;9202;51.578;7.734;2023-02-22T10:56:27;13.50;99.90
18153;DHT22;9202;51.578;7.734;2023-02-22T10:58:30;13.60;99.90
18153;DHT22;9202;51.578;7.734;2023-02-22T11:00:37;13.70;99.90
18153;DHT22;9202;51.578;7.734;2023-02-22T11:02:40;13.80;99.90
18153;DHT22;9202;51.578;7.734;2023-02-22T11:04:47;13.70;99.90
18153;DHT22;9202;51.578;7.734;2023-02-22T11:07:06;13.80;99.90
18153;DHT22;9202;51.578;7.734;2023-02-22T11:09:20;13.90;99.90
18153;DHT22;9202;51.578;7.734;2023-02-22T11:11:29;14.00;99.90
18153;DHT22;9202;51.578;7.734;2023-02-22T11:13:36;13.90;99.90
18153;DHT22;9202;51.578;7.734;2023-02-22T11:15:37;14.10;99.90
18153;DHT22;9202;51.578;7.734;2023-02-22T11:17:40;14.20;99.90
18153;DHT22;9202;51.578;7.734;2023-02-22T11:19:45;14.20;99.90
18153;DHT22;9202;51.578;7.734;2023-02-22T11:21:54;14.30;99.90
18153;DHT22;9202;51.578;7.734;2023-02-22T11:24:01;14.40;99.90
18153;DHT22;9202;51.578;7.734;2023-02-22T11:26:07;14.50;99.90
18153;DHT22;9202;51.578;7.734;2023-02-22T11:28:13;14.60;99.90
18153;DHT22;9202;51.578;7.734;2023-02-22T11:30:24;14.70;99.90
18153;DHT22;9202;51.578;7.734;2023-02-22T11:32:28;14.70;99.90
18153;DHT22;9202;51.578;7.734;2023-02-22T11:34:32;14.80;99.90
18153;DHT22;9202;51.578;7.734;2023-02-22T11:36:36;14.90;99.90
18153;DHT22;9202;51.578;7.734;2023-02-22T11:38:52;15.00;99.90
18153;DHT22;9202;51.578;7.734;2023-02-22T11:40:48;15.10;99.90
18153;DHT22;9202;51.578;7.734;2023-02-22T11:43:06;15.20;99.90
18153;DHT22;9202;51.578;7.734;2023-02-22T11:45:09;15.20;99.90
18153;DHT22;9202;51.578;7.734;2023-02-22T11:47:12;15.40;99.90
18153;DHT22;9202;51.578;7.734;2023-02-22T11:49:14;15.30;99.90
18153;DHT22;9202;51.578;7.734;2023-02-22T11:51:21;15.20;99.90
18153;DHT22;9202;51.578;7.734;2023-02-22T11:53:25;15.30;99.90
18153;DHT22;9202;51.578;7.734;2023-02-22T11:55:29;15.40;99.90
18153;DHT22;9202;51.578;7.734;2023-02-22T11:57:39;15.40;99.90
18153;DHT22;9202;51.578;7.734;2023-02-22T11:59:46;15.40;99.90
18153;DHT22;9202;51.578;7.734;2023-02-22T12:01:52;15.50;99.90
18153;DHT22;9202;51.578;7.734;2023-02-22T12:06:32;15.50;99.90
18153;DHT22;9202;51.578;7.734;2023-02-22T12:08:38;15.50;99.90
18153;DHT22;9202;51.578;7.734;2023-02-22T12:10:45;15.60;99.90
18153;DHT22;9202;51.578;7.734;2023-02-22T12:12:53;15.70;99.90
18153;DHT22;9202;51.578;7.734;2023-02-22T12:14:56;15.70;99.90
18153;DHT22;9202;51.578;7.734;2023-02-22T12:17:03;15.70;99.90
18153;DHT22;9202;51.578;7.734;2023-02-22T12:19:10;15.60;99.90
18153;DHT22;9202;51.578;7.734;2023-02-22T12:21:14;15.70;99.90
18153;DHT22;9202;51.578;7.734;2023-02-22T12:23:19;15.80;99.90
18153;DHT22;9202;51.578;7.734;2023-02-22T12:25:22;15.90;99.90
18153;DHT22;9202;51.578;7.734;2023-02-22T12:27:31;16.00;99.90
18153;DHT22;9202;51.578;7.734;2023-02-22T12:29:36;16.10;99.90
18153;DHT22;9202;51.578;7.734;2023-02-22T12:31:40;16.30;99.90
18153;DHT22;9202;51.578;7.734;2023-02-22T12:33:48;16.30;99.90
18153;DHT22;9202;51.578;7.734;2023-02-22T12:35:52;16.10;99.90
18153;DHT22;9202;51.578;7.734;2023-02-22T12:38:02;16.10;99.90
18153;DHT22;9202;51.578;7.734;2023-02-22T12:40:06;16.10;99.90
18153;DHT22;9202;51.578;7.734;2023-02-22T12:42:12;16.00;99.90
18153;DHT22;9202;51.578;7.734;2023-02-22T12:44:18;16.10;99.90
18153;DHT22;9202;51.578;7.734;2023-02-22T12:46:22;16.10;99.90
18153;DHT22;9202;51.578;7.734;2023-02-22T12:48:30;16.10;99.90
18153;DHT22;9202;51.578;7.734;2023-02-22T12:50:33;16.00;99.90
18153;DHT22;9202;51.578;7.734;2023-02-22T12:52:39;16.10;99.90
18153;DHT22;9202;51.578;7.734;2023-02-22T12:54:45;16.00;99.90
18153;DHT22;9202;51.578;7.734;2023-02-22T12:56:49;16.00;99.90
18153;DHT22;9202;51.578;7.734;2023-02-22T12:58:54;16.00;99.90
18153;DHT22;9202;51.578;7.734;2023-02-22T13:00:59;16.20;99.90
18153;DHT22;9202;51.578;7.734;2023-02-22T13:03:03;16.30;99.90
18153;DHT22;9202;51.578;7.734;2023-02-22T13:05:11;16.40;99.90
18153;DHT22;9202;51.578;7.734;2023-02-22T13:07:20;16.20;99.90
18153;DHT22;9202;51.578;7.734;2023-02-22T13:11:48;16.20;99.90
18153;DHT22;9202;51.578;7.734;2023-02-22T13:13:54;16.30;99.90
18153;DHT22;9202;51.578;7.734;2023-02-22T13:15:58;16.30;99.90
18153;DHT22;9202;51.578;7.734;2023-02-22T13:18:04;16.20;99.90
18153;DHT22;9202;51.578;7.734;2023-02-22T13:20:07;16.20;99.90
18153;DHT22;9202;51.578;7.734;2023-02-22T13:22:13;16.20;99.90
18153;DHT22;9202;51.578;7.734;2023-02-22T13:24:20;16.20;99.90
18153;DHT22;9202;51.578;7.734;2023-02-22T13:26:24;16.20;99.90
18153;DHT22;9202;51.578;7.734;2023-02-22T13:28:29;16.30;99.90
18153;DHT22;9202;51.578;7.734;2023-02-22T13:30:35;16.30;99.90
18153;DHT22;9202;51.578;7.734;2023-02-22T13:32:41;16.30;99.90
18153;DHT22;9202;51.578;7.734;2023-02-22T13:34:52;16.30;99.90
18153;DHT22;9202;51.578;7.734;2023-02-22T13:37:05;16.30;99.90
18153;DHT22;9202;51.578;7.734;2023-02-22T13:39:18;16.30;99.90
18153;DHT22;9202;51.578;7.734;2023-02-22T13:41:27;16.40;99.90
18153;DHT22;9202;51.578;7.734;2023-02-22T13:43:53;16.40;99.90